Terminal Aerodrome Forecast
Issued by NWS Charleston, WV

Current Version | Previous Version | Graphics & Text | Print | Product List | Glossary On
Versions: 1 2 3 4 5 6 7 8 9 10 11 12 13 14 15 16 17 18 19 20 21 22 23 24 25 26 27 28 29 30 31 32 33
158
FTUS41 KRLX 221203 CCA
TAFHTS
TAF COR
KHTS 221203Z 2212/2312 VRB03KT P6SM BKN080
     FM221400 20004KT P6SM VCTS SCT035 BKN100CB
     FM221600 21004KT P6SM BKN110
     FM221800 22005KT P6SM SCT040
     FM230000 22004KT P6SM BKN250
     FM230600 00000KT P6SM BKN020
     FM230800 00000KT P6SM BKN015=

USA.gov is the U.S. government's official web portal to all federal, state and local government web resources and services.